Terminal Aerodrome Forecast
Issued by NWS Louisville, KY

Home | Current Version | Previous Version | Text Only | Print | Product List | Glossary On
Versions: 1 2 3 4 5 6 7 8 9 10 11 12 13 14 15 16 17
540
FTUS43 KLMK 181720
TAFSDF
TAF
KSDF 181720Z 1818/1924 22010KT P6SM SKC
     FM182300 20006KT P6SM SKC
     FM191500 20012KT P6SM SKC=

USA.gov is the U.S. government's official web portal to all federal, state and local government web resources and services.